createdAt,value
2018-11-13T00:00:25.619Z,0.00
2018-11-13T00:01:25.793Z,0.00
2018-11-13T00:02:25.469Z,0.00
2018-11-13T00:03:25.394Z,0.00
2018-11-13T00:04:25.321Z,0.00
2018-11-13T00:05:25.245Z,0.00
2018-11-13T00:06:25.271Z,0.00
2018-11-13T00:07:25.096Z,0.00
2018-11-13T00:08:25.021Z,0.00
2018-11-13T00:09:24.952Z,0.00
2018-11-13T00:10:24.872Z,0.00
2018-11-13T00:11:24.802Z,0.00
2018-11-13T00:12:24.731Z,0.00
2018-11-13T00:13:24.652Z,0.00
2018-11-13T00:14:24.574Z,0.00
2018-11-13T00:15:24.499Z,0.00
2018-11-13T00:16:24.424Z,0.00
2018-11-13T00:17:24.350Z,0.00
2018-11-13T00:18:24.276Z,0.00
2018-11-13T00:19:24.202Z,0.00
2018-11-13T00:20:24.126Z,0.00
2018-11-13T00:21:24.052Z,0.00
2018-11-13T00:22:23.978Z,0.00
2018-11-13T00:23:23.904Z,0.00
2018-11-13T00:24:23.829Z,0.00
2018-11-13T00:25:23.812Z,0.00
2018-11-13T00:26:23.679Z,0.00
2018-11-13T00:27:23.640Z,0.00
2018-11-13T00:28:23.531Z,0.00
2018-11-13T00:29:23.478Z,0.00
2018-11-13T00:30:23.878Z,0.00
2018-11-13T00:31:23.307Z,0.00
2018-11-13T00:32:23.482Z,0.00
2018-11-13T00:33:23.157Z,0.00
2018-11-13T00:34:23.087Z,0.00
2018-11-13T00:35:23.010Z,0.00
2018-11-13T00:36:22.934Z,0.00
2018-11-13T00:37:22.859Z,0.00
2018-11-13T00:38:22.785Z,0.00
2018-11-13T00:39:22.711Z,0.00
2018-11-13T00:40:22.636Z,0.00
2018-11-13T00:41:22.562Z,0.00
2018-11-13T00:42:22.488Z,0.00
2018-11-13T00:43:22.412Z,0.00
2018-11-13T00:44:22.341Z,0.00
2018-11-13T00:45:22.318Z,0.00
2018-11-13T00:46:22.189Z,0.00
2018-11-13T00:47:22.114Z,0.00
2018-11-13T00:48:22.053Z,0.00
2018-11-13T00:49:21.964Z,0.00
2018-11-13T00:50:21.890Z,0.00
2018-11-13T00:51:21.815Z,0.00
2018-11-13T00:52:21.740Z,0.00
2018-11-13T00:53:21.664Z,0.00
2018-11-13T00:54:21.592Z,0.00
2018-11-13T00:55:21.517Z,0.00
2018-11-13T00:56:21.441Z,0.00
2018-11-13T00:57:21.368Z,0.00
2018-11-13T00:58:21.292Z,0.00
2018-11-13T00:59:21.227Z,0.00
2018-11-13T01:00:21.169Z,0.00
2018-11-13T01:01:21.076Z,0.00
2018-11-13T01:02:20.994Z,0.00
2018-11-13T01:03:20.969Z,0.00
2018-11-13T01:04:20.847Z,0.00
2018-11-13T01:05:20.889Z,0.00
2018-11-13T01:06:20.697Z,0.00
2018-11-13T01:07:20.621Z,0.00
2018-11-13T01:08:20.545Z,0.00
2018-11-13T01:09:20.481Z,0.00
2018-11-13T01:10:20.399Z,0.00
2018-11-13T01:11:20.322Z,0.00
2018-11-13T01:12:20.247Z,0.00
2018-11-13T01:13:20.172Z,0.00
2018-11-13T01:14:20.099Z,0.00
2018-11-13T01:15:20.024Z,0.00
2018-11-13T01:16:19.948Z,0.00
2018-11-13T01:17:19.948Z,0.00
2018-11-13T01:18:19.799Z,0.00
2018-11-13T01:19:19.727Z,0.00
2018-11-13T01:20:19.650Z,0.00
2018-11-13T01:21:19.577Z,0.00
2018-11-13T01:22:19.551Z,0.00
2018-11-13T01:23:19.477Z,0.00
2018-11-13T01:24:19.479Z,0.00
2018-11-13T01:25:19.280Z,0.00
2018-11-13T01:26:19.203Z,0.00
2018-11-13T01:27:19.129Z,0.00
2018-11-13T01:28:19.052Z,0.00
2018-11-13T01:29:18.979Z,0.00
2018-11-13T01:30:18.904Z,0.00
2018-11-13T01:31:18.829Z,0.00
2018-11-13T01:32:18.754Z,0.00
2018-11-13T01:33:18.929Z,0.00
2018-11-13T01:34:18.604Z,0.00
2018-11-13T01:35:18.529Z,0.00
2018-11-13T01:36:18.454Z,0.00
2018-11-13T01:37:18.383Z,0.00
2018-11-13T01:38:18.357Z,0.00
2018-11-13T01:39:18.231Z,0.00
2018-11-13T01:40:18.155Z,0.00
2018-11-13T01:41:18.086Z,0.00
2018-11-13T01:42:18.007Z,0.00
2018-11-13T01:43:18.183Z,0.00
2018-11-13T01:44:17.863Z,0.00
2018-11-13T01:45:17.783Z,0.00
2018-11-13T01:46:17.706Z,0.00
2018-11-13T01:47:17.634Z,0.00
2018-11-13T01:48:17.559Z,0.00
2018-11-13T01:49:17.484Z,0.00
2018-11-13T01:50:17.413Z,0.00
2018-11-13T01:51:17.334Z,0.00
2018-11-13T01:52:17.259Z,0.00
2018-11-13T01:53:17.185Z,0.00
2018-11-13T01:54:17.169Z,0.00
2018-11-13T01:55:17.036Z,0.00
2018-11-13T01:56:16.961Z,0.00
2018-11-13T01:57:16.886Z,0.00
2018-11-13T01:58:16.811Z,0.00
2018-11-13T01:59:16.737Z,0.00
2018-11-13T02:00:16.660Z,0.00
2018-11-13T02:01:16.586Z,0.00
2018-11-13T02:02:16.511Z,0.00
2018-11-13T02:03:16.439Z,0.00
2018-11-13T02:04:16.361Z,0.00
2018-11-13T02:05:16.288Z,0.00
2018-11-13T02:06:16.211Z,0.00
2018-11-13T02:07:16.137Z,0.00
2018-11-13T02:08:16.061Z,0.00
2018-11-13T02:09:16.035Z,0.00
2018-11-13T02:10:15.911Z,0.00
2018-11-13T02:11:15.836Z,0.00
2018-11-13T02:12:15.761Z,0.00
2018-11-13T02:13:15.686Z,0.00
2018-11-13T02:14:15.662Z,0.00
2018-11-13T02:15:15.536Z,0.00
2018-11-13T02:16:15.461Z,0.00
2018-11-13T02:17:15.386Z,0.00
2018-11-13T02:18:15.312Z,0.00
2018-11-13T02:19:15.287Z,0.00
2018-11-13T02:20:15.163Z,0.00
2018-11-13T02:21:15.087Z,0.00
2018-11-13T02:22:15.013Z,0.00
2018-11-13T02:23:14.938Z,0.00
2018-11-13T02:24:14.862Z,0.00
2018-11-13T02:25:14.887Z,0.00
2018-11-13T02:26:20.978Z,0.00
2018-11-13T02:27:14.636Z,0.00
2018-11-13T02:28:14.560Z,0.00
2018-11-13T02:29:14.487Z,0.00
2018-11-13T02:30:14.412Z,0.00
2018-11-13T02:31:14.337Z,0.00
2018-11-13T02:32:14.262Z,0.00
2018-11-13T02:33:14.186Z,0.00
2018-11-13T02:34:14.110Z,0.00
2018-11-13T02:35:14.158Z,0.00
2018-11-13T02:36:13.961Z,0.00
2018-11-13T02:37:13.986Z,0.00
2018-11-13T02:38:13.810Z,0.00
2018-11-13T02:39:13.735Z,0.00
2018-11-13T02:40:13.660Z,0.00
2018-11-13T02:41:13.584Z,0.00
2018-11-13T02:42:13.509Z,0.00
2018-11-13T02:43:13.435Z,0.00
2018-11-13T02:44:13.359Z,0.00
2018-11-13T02:45:13.287Z,0.00
2018-11-13T02:46:13.210Z,0.00
2018-11-13T02:47:13.187Z,0.00
2018-11-13T02:48:13.158Z,0.00
2018-11-13T02:49:12.982Z,0.00
2018-11-13T02:50:12.909Z,0.00
2018-11-13T02:51:12.834Z,0.00
2018-11-13T02:52:12.756Z,0.00
2018-11-13T02:53:12.933Z,0.00
2018-11-13T02:54:12.607Z,0.00
2018-11-13T02:55:12.536Z,0.00
2018-11-13T02:56:12.456Z,0.00
2018-11-13T02:57:12.381Z,0.00
2018-11-13T02:58:12.310Z,0.00
2018-11-13T02:59:12.230Z,0.00
2018-11-13T03:00:12.155Z,0.00
2018-11-13T03:01:12.080Z,0.00
2018-11-13T03:02:12.004Z,0.00
2018-11-13T03:03:12.179Z,0.00
2018-11-13T03:04:11.854Z,0.00
2018-11-13T03:05:11.779Z,0.00
2018-11-13T03:06:11.704Z,0.00
2018-11-13T03:07:11.629Z,0.00
2018-11-13T03:08:11.551Z,0.00
2018-11-13T03:09:11.476Z,0.00
2018-11-13T03:10:11.405Z,0.00
2018-11-13T03:11:11.328Z,0.00
2018-11-13T03:12:11.251Z,0.00
2018-11-13T03:13:11.178Z,0.00
2018-11-13T03:14:11.151Z,0.00
2018-11-13T03:15:11.026Z,0.00
2018-11-13T03:16:10.949Z,0.00
2018-11-13T03:17:10.873Z,0.00
2018-11-13T03:18:10.801Z,0.00
2018-11-13T03:19:10.725Z,0.00
2018-11-13T03:20:10.651Z,0.00
2018-11-13T03:21:10.572Z,0.00
2018-11-13T03:22:10.499Z,0.00
2018-11-13T03:23:10.423Z,0.00
2018-11-13T03:24:10.346Z,0.00
2018-11-13T03:25:10.379Z,0.00
2018-11-13T03:26:10.196Z,0.00
2018-11-13T03:27:10.125Z,0.00
2018-11-13T03:28:10.045Z,0.00
2018-11-13T03:29:09.970Z,0.00
2018-11-13T03:30:09.950Z,0.00
2018-11-13T03:31:09.892Z,0.00
2018-11-13T03:32:09.744Z,0.00
2018-11-13T03:33:09.669Z,0.00
2018-11-13T03:34:09.593Z,0.00
2018-11-13T03:35:09.568Z,0.00
2018-11-13T03:36:09.451Z,0.00
2018-11-13T03:37:09.367Z,0.00
2018-11-13T03:38:09.291Z,0.00
2018-11-13T03:39:09.217Z,0.00
2018-11-13T03:40:09.239Z,0.00
2018-11-13T03:41:09.064Z,0.00
2018-11-13T03:42:08.989Z,0.00
2018-11-13T03:43:08.916Z,0.00
2018-11-13T03:44:08.838Z,0.00
2018-11-13T03:45:08.763Z,0.00
2018-11-13T03:46:08.689Z,0.00
2018-11-13T03:47:08.613Z,0.00
2018-11-13T03:48:08.536Z,0.00
2018-11-13T03:49:08.461Z,0.00
2018-11-13T03:50:08.387Z,0.00
2018-11-13T03:51:08.311Z,0.00
2018-11-13T03:52:08.236Z,0.00
2018-11-13T03:53:08.168Z,0.00
2018-11-13T03:54:08.085Z,0.00
2018-11-13T03:55:08.010Z,0.00
2018-11-13T03:56:07.935Z,0.00
2018-11-13T03:57:07.858Z,0.00
2018-11-13T03:58:07.783Z,0.00
2018-11-13T03:59:07.707Z,0.00
2018-11-13T04:00:07.730Z,0.00
2018-11-13T04:01:07.557Z,0.00
2018-11-13T04:02:07.482Z,0.00
2018-11-13T04:03:07.406Z,0.00
2018-11-13T04:04:07.330Z,0.00
2018-11-13T04:05:07.256Z,0.00
2018-11-13T04:06:07.179Z,0.00
2018-11-13T04:07:07.102Z,0.00
2018-11-13T04:08:07.026Z,0.00
2018-11-13T04:09:06.955Z,0.00
2018-11-13T04:10:06.879Z,0.00
2018-11-13T04:11:06.804Z,0.00
2018-11-13T04:12:06.726Z,0.00
2018-11-13T04:13:06.649Z,0.00
2018-11-13T04:14:06.574Z,0.00
2018-11-13T04:15:06.599Z,0.00
2018-11-13T04:16:06.423Z,0.00
2018-11-13T04:17:06.348Z,0.00
2018-11-13T04:18:06.273Z,0.00
2018-11-13T04:19:06.197Z,0.00
2018-11-13T04:20:06.171Z,0.00
2018-11-13T04:21:06.045Z,0.00
2018-11-13T04:22:05.969Z,0.00
2018-11-13T04:23:05.894Z,0.00
2018-11-13T04:24:05.819Z,0.00
2018-11-13T04:25:05.744Z,0.00
2018-11-13T04:26:05.769Z,0.00
2018-11-13T04:27:05.592Z,0.00
2018-11-13T04:28:05.516Z,0.00
2018-11-13T04:29:05.441Z,0.00
2018-11-13T04:30:05.365Z,0.00
2018-11-13T04:31:05.291Z,0.00
2018-11-13T04:32:05.214Z,0.00
2018-11-13T04:33:05.139Z,0.00
2018-11-13T04:34:05.065Z,0.00
2018-11-13T04:35:04.988Z,0.00
2018-11-13T04:36:04.961Z,0.00
2018-11-13T04:37:04.836Z,0.00
2018-11-13T04:38:04.760Z,0.00
2018-11-13T04:39:04.685Z,0.00
2018-11-13T04:40:04.609Z,0.00
2018-11-13T04:41:04.536Z,0.00
2018-11-13T04:42:04.459Z,0.00
2018-11-13T04:43:04.384Z,0.00
2018-11-13T04:44:04.315Z,0.00
2018-11-13T04:45:04.234Z,0.00
2018-11-13T04:46:04.156Z,0.00
2018-11-13T04:47:04.081Z,0.00
2018-11-13T04:48:04.012Z,0.00
2018-11-13T04:49:03.930Z,0.00
2018-11-13T04:50:03.854Z,0.00
2018-11-13T04:51:03.780Z,0.00
2018-11-13T04:52:03.704Z,0.00
2018-11-13T04:53:03.633Z,0.00
2018-11-13T04:54:03.552Z,0.00
2018-11-13T04:55:03.477Z,0.00
2018-11-13T04:56:03.401Z,0.00
2018-11-13T04:57:03.326Z,0.00
2018-11-13T04:58:03.250Z,0.00
2018-11-13T04:59:03.174Z,0.00
2018-11-13T05:00:03.103Z,0.00
2018-11-13T05:01:03.030Z,0.00
2018-11-13T05:02:02.947Z,0.00
2018-11-13T05:03:02.948Z,0.00
2018-11-13T05:04:02.795Z,0.00
2018-11-13T05:05:02.720Z,0.00
2018-11-13T05:06:02.644Z,0.00
2018-11-13T05:07:02.569Z,0.00
2018-11-13T05:08:02.493Z,0.00
2018-11-13T05:09:02.419Z,0.00
2018-11-13T05:10:02.391Z,0.00
2018-11-13T05:11:02.265Z,0.00
2018-11-13T05:12:02.191Z,0.00
2018-11-13T05:13:02.115Z,0.00
2018-11-13T05:14:02.040Z,0.00
2018-11-13T05:15:01.969Z,0.00
2018-11-13T05:16:01.889Z,0.00
2018-11-13T05:17:01.812Z,0.00
2018-11-13T05:18:01.740Z,0.00
2018-11-13T05:19:01.667Z,0.00
2018-11-13T05:20:01.585Z,0.00
2018-11-13T05:21:01.508Z,0.00
2018-11-13T05:22:01.434Z,0.00
2018-11-13T05:23:01.428Z,0.00
2018-11-13T05:24:01.281Z,0.00
2018-11-13T05:25:01.206Z,0.00
2018-11-13T05:26:01.135Z,0.00
2018-11-13T05:27:01.056Z,0.00
2018-11-13T05:28:00.979Z,0.00
2018-11-13T05:29:01.005Z,0.00
2018-11-13T05:30:00.827Z,0.00
2018-11-13T05:31:00.752Z,0.00
2018-11-13T05:32:00.678Z,0.00
2018-11-13T05:33:00.599Z,0.00
2018-11-13T05:34:00.523Z,0.00
2018-11-13T05:35:00.449Z,0.00
2018-11-13T05:36:00.371Z,0.00
2018-11-13T05:37:00.298Z,0.00
2018-11-13T05:38:00.232Z,0.00
2018-11-13T05:39:00.145Z,0.00
2018-11-13T05:40:00.069Z,0.00
2018-11-13T05:40:59.992Z,0.00
2018-11-13T05:41:59.918Z,0.00
2018-11-13T05:42:59.842Z,0.00
2018-11-13T05:43:59.765Z,0.00
2018-11-13T05:44:59.690Z,0.00
2018-11-13T05:45:59.620Z,0.00
2018-11-13T05:46:59.549Z,0.00
2018-11-13T05:47:59.464Z,0.00
2018-11-13T05:48:59.386Z,0.00
2018-11-13T05:49:59.310Z,0.00
2018-11-13T05:50:59.238Z,0.00
2018-11-13T05:51:59.158Z,0.00
2018-11-13T05:52:59.082Z,0.00
2018-11-13T05:53:59.007Z,0.00
2018-11-13T05:54:58.931Z,0.00
2018-11-13T05:55:58.854Z,0.00
2018-11-13T05:56:58.778Z,0.00
2018-11-13T05:57:58.703Z,0.00
2018-11-13T05:58:58.626Z,0.00
2018-11-13T05:59:58.634Z,0.00
2018-11-13T06:00:58.474Z,0.00
2018-11-13T06:01:58.398Z,0.00
2018-11-13T06:02:58.322Z,0.00
2018-11-13T06:03:58.246Z,0.00
2018-11-13T06:04:58.170Z,0.00
2018-11-13T06:05:58.094Z,0.00
2018-11-13T06:06:58.020Z,0.00
2018-11-13T06:07:57.942Z,0.00
2018-11-13T06:08:57.866Z,4.00
2018-11-13T06:09:57.791Z,4.00
2018-11-13T06:10:57.714Z,4.00
2018-11-13T06:11:57.636Z,4.00
2018-11-13T06:12:57.562Z,4.00
2018-11-13T06:13:57.544Z,4.00
2018-11-13T06:14:57.410Z,4.00
2018-11-13T06:15:57.333Z,8.00
2018-11-13T06:16:57.257Z,8.00
2018-11-13T06:17:57.184Z,12.00
2018-11-13T06:18:57.104Z,12.00
2018-11-13T06:19:57.032Z,12.00
2018-11-13T06:20:56.953Z,12.00
2018-11-13T06:21:56.877Z,16.00
2018-11-13T06:22:56.807Z,16.00
2018-11-13T06:23:56.724Z,16.00
2018-11-13T06:24:56.648Z,20.00
2018-11-13T06:25:56.573Z,20.00
2018-11-13T06:26:56.496Z,24.00
2018-11-13T06:27:56.420Z,24.00
2018-11-13T06:28:56.347Z,24.00
2018-11-13T06:29:56.272Z,28.00
2018-11-13T06:30:56.194Z,32.00
2018-11-13T06:31:56.117Z,28.00
2018-11-13T06:32:56.041Z,28.00
2018-11-13T06:33:55.964Z,32.00
2018-11-13T06:34:55.890Z,36.00
2018-11-13T06:35:55.812Z,44.00
2018-11-13T06:36:55.737Z,44.00
2018-11-13T06:37:55.660Z,48.00
2018-11-13T06:38:55.705Z,48.00
2018-11-13T06:39:55.557Z,52.00
2018-11-13T06:40:55.432Z,56.00
2018-11-13T06:41:55.360Z,60.00
2018-11-13T06:42:55.279Z,60.00
2018-11-13T06:43:55.203Z,68.00
2018-11-13T06:44:55.126Z,76.00
2018-11-13T06:45:55.051Z,84.00
2018-11-13T06:46:54.974Z,88.00
2018-11-13T06:47:54.901Z,96.00
2018-11-13T06:48:54.839Z,100.00
2018-11-13T06:49:54.746Z,104.00
2018-11-13T06:50:54.670Z,108.00
2018-11-13T06:51:54.599Z,116.00
2018-11-13T06:52:54.516Z,132.00
2018-11-13T06:53:54.440Z,152.00
2018-11-13T06:54:54.366Z,172.00
2018-11-13T06:55:54.288Z,188.00
2018-11-13T06:56:54.212Z,196.00
2018-11-13T06:57:54.135Z,192.00
2018-11-13T06:58:54.060Z,188.00
2018-11-13T06:59:53.984Z,188.00
2018-11-13T07:00:53.907Z,188.00
2018-11-13T07:01:53.830Z,192.00
2018-11-13T07:02:53.755Z,196.00
2018-11-13T07:03:53.676Z,204.00
2018-11-13T07:04:53.630Z,208.00
2018-11-13T07:05:53.525Z,220.00
2018-11-13T07:06:53.449Z,220.00
2018-11-13T07:07:53.375Z,232.00
2018-11-13T07:08:53.296Z,248.00
2018-11-13T07:09:53.220Z,256.00
2018-11-13T07:10:53.205Z,260.00
2018-11-13T07:11:53.065Z,252.00
2018-11-13T07:12:52.990Z,240.00
2018-11-13T07:13:52.914Z,228.00
2018-11-13T07:14:52.837Z,232.00
2018-11-13T07:15:52.760Z,244.00
2018-11-13T07:16:52.684Z,252.00
2018-11-13T07:17:52.607Z,276.00
2018-11-13T07:18:52.532Z,292.00
2018-11-13T07:19:52.453Z,312.00
2018-11-13T07:20:52.427Z,348.00
2018-11-13T07:21:52.301Z,384.00
2018-11-13T07:22:52.224Z,440.00
2018-11-13T07:23:52.147Z,500.00
2018-11-13T07:24:52.072Z,552.00
2018-11-13T07:25:52.000Z,620.00
2018-11-13T07:26:51.941Z,692.00
2018-11-13T07:27:52.029Z,756.00
2018-11-13T07:28:51.765Z,816.00
2018-11-13T07:29:51.690Z,856.00
2018-11-13T07:30:51.613Z,908.00
2018-11-13T07:31:51.537Z,992.00
2018-11-13T07:32:51.460Z,1032.00
2018-11-13T07:33:51.383Z,1076.00
2018-11-13T07:34:51.306Z,1108.00
2018-11-13T07:35:51.232Z,1096.00
2018-11-13T07:36:51.154Z,1168.00
2018-11-13T07:37:51.076Z,1232.00
2018-11-13T07:38:51.001Z,1256.00
2018-11-13T07:39:50.923Z,1300.00
2018-11-13T07:40:50.879Z,1296.00
2018-11-13T07:41:50.771Z,1240.00
2018-11-13T07:42:50.696Z,1180.00
2018-11-13T07:43:50.618Z,1124.00
2018-11-13T07:44:50.542Z,1064.00
2018-11-13T07:45:50.465Z,1036.00
2018-11-13T07:46:50.449Z,1052.00
2018-11-13T07:47:50.473Z,1052.00
2018-11-13T07:48:50.237Z,1052.00
2018-11-13T07:49:50.160Z,1084.00
2018-11-13T07:50:50.086Z,1168.00
2018-11-13T07:51:50.009Z,1272.00
2018-11-13T07:52:49.933Z,1324.00
2018-11-13T07:53:49.870Z,1352.00
2018-11-13T07:54:49.780Z,1504.00
2018-11-13T07:55:49.703Z,1828.00
2018-11-13T07:56:49.629Z,2100.00
2018-11-13T07:57:49.552Z,2192.00
2018-11-13T07:58:49.480Z,2228.00
2018-11-13T07:59:49.399Z,2384.00
2018-11-13T08:00:49.325Z,2228.00
2018-11-13T08:01:49.249Z,2192.00
2018-11-13T08:02:49.172Z,2188.00
2018-11-13T08:03:49.145Z,1932.00
2018-11-13T08:04:49.020Z,1648.00
2018-11-13T08:05:48.948Z,1416.00
2018-11-13T08:06:49.024Z,1096.00
2018-11-13T08:07:48.794Z,936.00
2018-11-13T08:08:48.717Z,984.00
2018-11-13T08:09:48.642Z,1148.00
2018-11-13T08:10:48.566Z,1432.00
2018-11-13T08:11:48.490Z,1776.00
2018-11-13T08:12:48.509Z,1996.00
2018-11-13T08:13:48.439Z,2112.00
2018-11-13T08:14:48.266Z,1980.00
2018-11-13T08:15:48.188Z,1588.00
2018-11-13T08:16:48.112Z,1412.00
2018-11-13T08:17:48.035Z,1336.00
2018-11-13T08:18:47.968Z,1408.00
2018-11-13T08:19:47.886Z,1536.00
2018-11-13T08:20:47.810Z,1712.00
2018-11-13T08:21:47.734Z,1896.00
2018-11-13T08:22:47.658Z,2060.00
2018-11-13T08:23:47.584Z,2240.00
2018-11-13T08:24:47.508Z,2376.00
2018-11-13T08:25:47.432Z,2256.00
2018-11-13T08:26:47.374Z,2100.00
2018-11-13T08:27:47.359Z,2220.00
2018-11-13T08:28:47.248Z,2320.00
2018-11-13T08:29:47.131Z,2156.00
2018-11-13T08:30:47.056Z,1908.00
2018-11-13T08:31:46.984Z,1528.00
2018-11-13T08:32:46.906Z,1248.00
2018-11-13T08:33:46.829Z,1068.00
2018-11-13T08:34:46.784Z,1172.00
2018-11-13T08:35:46.781Z,1080.00
2018-11-13T08:36:46.602Z,744.00
2018-11-13T08:37:46.526Z,592.00
2018-11-13T08:38:46.450Z,468.00
2018-11-13T08:39:46.374Z,388.00
2018-11-13T08:40:46.300Z,384.00
2018-11-13T08:41:46.223Z,528.00
2018-11-13T08:42:46.148Z,712.00
2018-11-13T08:43:46.152Z,756.00
2018-11-13T08:44:46.001Z,612.00
2018-11-13T08:45:45.921Z,676.00
2018-11-13T08:46:45.847Z,824.00
2018-11-13T08:47:45.768Z,684.00
2018-11-13T08:48:45.692Z,832.00
2018-11-13T08:49:45.616Z,1080.00
2018-11-13T08:50:45.557Z,1292.00
2018-11-13T08:51:45.465Z,1564.00
2018-11-13T08:52:45.388Z,1296.00
2018-11-13T08:53:45.316Z,1112.00
2018-11-13T08:54:45.238Z,948.00
2018-11-13T08:55:45.161Z,1256.00
2018-11-13T08:56:45.085Z,1260.00
2018-11-13T08:57:45.010Z,1756.00
2018-11-13T08:58:44.943Z,2188.00
2018-11-13T08:59:44.984Z,1848.00
2018-11-13T09:00:44.780Z,1260.00
2018-11-13T09:01:44.705Z,1356.00
2018-11-13T09:02:44.680Z,2112.00
2018-11-13T09:03:44.556Z,1976.00
2018-11-13T09:04:44.476Z,1688.00
2018-11-13T09:05:44.402Z,1508.00
2018-11-13T09:06:44.325Z,1508.00
2018-11-13T09:07:44.248Z,1472.00
2018-11-13T09:08:44.172Z,1504.00
2018-11-13T09:09:44.096Z,1152.00
2018-11-13T09:10:44.021Z,972.00
2018-11-13T09:11:44.031Z,932.00
2018-11-13T09:12:43.868Z,1108.00
2018-11-13T09:13:43.792Z,1432.00
2018-11-13T09:14:43.716Z,1340.00
2018-11-13T09:15:43.638Z,1036.00
2018-11-13T09:16:43.563Z,840.00
2018-11-13T09:17:43.488Z,844.00
2018-11-13T09:18:43.452Z,852.00
2018-11-13T09:19:43.455Z,836.00
2018-11-13T09:20:43.260Z,872.00
2018-11-13T09:21:43.238Z,864.00
2018-11-13T09:22:43.186Z,936.00
2018-11-13T09:23:43.030Z,952.00
2018-11-13T09:24:42.955Z,1084.00
2018-11-13T09:25:42.885Z,1056.00
2018-11-13T09:26:42.802Z,1024.00
2018-11-13T09:27:42.763Z,1264.00
2018-11-13T09:28:42.652Z,1308.00
2018-11-13T09:29:42.654Z,1236.00
2018-11-13T09:30:42.816Z,1248.00
2018-11-13T09:31:42.433Z,1484.00
2018-11-13T09:32:42.345Z,1620.00
2018-11-13T09:33:42.344Z,1220.00
2018-11-13T09:34:42.193Z,1100.00
2018-11-13T09:35:42.115Z,1244.00
2018-11-13T09:36:42.040Z,1328.00
2018-11-13T09:37:42.159Z,1212.00
2018-11-13T09:38:41.887Z,1180.00
2018-11-13T09:39:41.810Z,1240.00
2018-11-13T09:40:41.734Z,1392.00
2018-11-13T09:41:41.658Z,1500.00
2018-11-13T09:42:41.582Z,1364.00
2018-11-13T09:43:41.507Z,1364.00
2018-11-13T09:44:41.444Z,1468.00
2018-11-13T09:45:41.385Z,1732.00
2018-11-13T09:46:41.303Z,2052.00
2018-11-13T09:47:41.436Z,2364.00
2018-11-13T09:48:41.155Z,2460.00
2018-11-13T09:49:41.049Z,2508.00
2018-11-13T09:50:40.986Z,2496.00
2018-11-13T09:51:40.948Z,2576.00
2018-11-13T09:52:40.821Z,2908.00
2018-11-13T09:53:40.768Z,3280.00
2018-11-13T09:54:40.669Z,3488.00
2018-11-13T09:55:40.595Z,3296.00
2018-11-13T09:56:40.518Z,2996.00
2018-11-13T09:57:40.441Z,2936.00
2018-11-13T09:58:40.681Z,3152.00
2018-11-13T09:59:40.289Z,2936.00
2018-11-13T10:00:40.415Z,3028.00
2018-11-13T10:01:40.411Z,3364.00
2018-11-13T10:02:40.756Z,3580.00
2018-11-13T10:03:40.828Z,3444.00
2018-11-13T10:04:40.805Z,3120.00
2018-11-13T10:05:40.038Z,3232.00
2018-11-13T10:06:39.805Z,3268.00
2018-11-13T10:07:39.683Z,2740.00
2018-11-13T10:08:39.606Z,2308.00
2018-11-13T10:09:39.533Z,2312.00
2018-11-13T10:10:39.538Z,2588.00
2018-11-13T10:11:39.379Z,2876.00
2018-11-13T10:12:39.308Z,3036.00
2018-11-13T10:13:39.229Z,3076.00
2018-11-13T10:14:39.153Z,3052.00
2018-11-13T10:15:39.110Z,2968.00
2018-11-13T10:16:39.000Z,3064.00
2018-11-13T10:17:38.995Z,3072.00
2018-11-13T10:18:38.849Z,3492.00
2018-11-13T10:19:38.772Z,4056.00
2018-11-13T10:20:38.697Z,4660.00
2018-11-13T10:21:38.622Z,4220.00
2018-11-13T10:22:38.546Z,3884.00
2018-11-13T10:23:38.469Z,3376.00
2018-11-13T10:24:38.393Z,3680.00
2018-11-13T10:25:38.318Z,3764.00
2018-11-13T10:26:38.245Z,4800.00
2018-11-13T10:27:38.224Z,6220.00
2018-11-13T10:28:38.090Z,5624.00
2018-11-13T10:29:38.016Z,5628.00
2018-11-13T10:30:37.945Z,3724.00
2018-11-13T10:31:37.863Z,1832.00
2018-11-13T10:32:37.789Z,1728.00
2018-11-13T10:33:37.715Z,2260.00
2018-11-13T10:34:37.639Z,2468.00
2018-11-13T10:35:37.565Z,2228.00
2018-11-13T10:36:37.487Z,2592.00
2018-11-13T10:37:37.411Z,2856.00
2018-11-13T10:38:37.336Z,3540.00
2018-11-13T10:39:37.261Z,4776.00
2018-11-13T10:40:37.336Z,4032.00
2018-11-13T10:41:37.226Z,3444.00
2018-11-13T10:42:37.037Z,3304.00
2018-11-13T10:43:36.958Z,3108.00
2018-11-13T10:44:36.885Z,3052.00
2018-11-13T10:45:36.806Z,3000.00
2018-11-13T10:46:36.732Z,3672.00
2018-11-13T10:47:36.658Z,4748.00
2018-11-13T10:48:36.580Z,5308.00
2018-11-13T10:49:36.505Z,4768.00
2018-11-13T10:50:36.432Z,4664.00
2018-11-13T10:51:36.354Z,4288.00
2018-11-13T10:52:36.279Z,5148.00
2018-11-13T10:53:36.204Z,5580.00
2018-11-13T10:54:36.128Z,5444.00
2018-11-13T10:55:36.051Z,6056.00
2018-11-13T10:56:36.065Z,7060.00
2018-11-13T10:57:35.909Z,7720.00
2018-11-13T10:58:35.835Z,8284.00
2018-11-13T10:59:35.749Z,9568.00
2018-11-13T11:00:35.679Z,10940.00
2018-11-13T11:01:35.598Z,12012.00
2018-11-13T11:02:35.658Z,7856.00
2018-11-13T11:03:35.447Z,6404.00
2018-11-13T11:04:35.414Z,6380.00
2018-11-13T11:05:35.296Z,6716.00
2018-11-13T11:06:35.223Z,7016.00
2018-11-13T11:07:35.298Z,6992.00
2018-11-13T11:08:35.070Z,6956.00
2018-11-13T11:09:34.996Z,6620.00
2018-11-13T11:10:34.923Z,7348.00
2018-11-13T11:11:34.965Z,7504.00
2018-11-13T11:12:34.772Z,8636.00
2018-11-13T11:13:34.836Z,3916.00
2018-11-13T11:14:34.620Z,2772.00
2018-11-13T11:15:34.547Z,3704.00
2018-11-13T11:16:34.469Z,7020.00
2018-11-13T11:17:34.395Z,8100.00
2018-11-13T11:18:34.347Z,10576.00
2018-11-13T11:19:34.372Z,9936.00
2018-11-13T11:20:34.171Z,6116.00
2018-11-13T11:21:34.095Z,4696.00
2018-11-13T11:22:34.149Z,4700.00
2018-11-13T11:23:34.071Z,7036.00
2018-11-13T11:24:33.871Z,7616.00
2018-11-13T11:25:33.797Z,8968.00
2018-11-13T11:26:33.828Z,8584.00
2018-11-13T11:27:33.746Z,8372.00
2018-11-13T11:28:33.574Z,8804.00
2018-11-13T11:29:33.506Z,8000.00
2018-11-13T11:30:33.427Z,7392.00
2018-11-13T11:31:33.346Z,6448.00
2018-11-13T11:32:33.323Z,5744.00
2018-11-13T11:33:33.199Z,4736.00
2018-11-13T11:34:33.123Z,3520.00
2018-11-13T11:35:33.049Z,3276.00
2018-11-13T11:36:32.973Z,3292.00
2018-11-13T11:37:32.899Z,3304.00
2018-11-13T11:38:32.857Z,3788.00
2018-11-13T11:39:32.753Z,10220.00
2018-11-13T11:40:32.675Z,5876.00
2018-11-13T11:41:32.601Z,6172.00
2018-11-13T11:42:32.526Z,4680.00
2018-11-13T11:43:32.451Z,5852.00
2018-11-13T11:44:32.457Z,4332.00
2018-11-13T11:45:32.301Z,3856.00
2018-11-13T11:46:32.227Z,5252.00
2018-11-13T11:47:32.148Z,35488.00
2018-11-13T11:48:32.074Z,34272.00
2018-11-13T11:49:32.000Z,34464.00
2018-11-13T11:50:31.926Z,9364.00
2018-11-13T11:51:31.851Z,6976.00
2018-11-13T11:52:31.777Z,8660.00
2018-11-13T11:53:31.703Z,6316.00
2018-11-13T11:54:31.631Z,5068.00
2018-11-13T11:55:31.554Z,5384.00
2018-11-13T11:56:31.479Z,7492.00
2018-11-13T11:57:31.406Z,11652.00
2018-11-13T11:58:31.333Z,14212.00
2018-11-13T11:59:31.257Z,5620.00
2018-11-13T12:00:31.245Z,4464.00
2018-11-13T12:01:31.111Z,4596.00
2018-11-13T12:02:31.037Z,10536.00
2018-11-13T12:03:30.963Z,17760.00
2018-11-13T12:04:30.889Z,10940.00
2018-11-13T12:05:30.817Z,18272.00
2018-11-13T12:06:30.741Z,7688.00
2018-11-13T12:07:30.667Z,6232.00
2018-11-13T12:08:30.596Z,5412.00
2018-11-13T12:09:30.621Z,4168.00
2018-11-13T12:10:30.447Z,5912.00
2018-11-13T12:11:30.375Z,8808.00
2018-11-13T12:12:30.301Z,10244.00
2018-11-13T12:13:30.227Z,6208.00
2018-11-13T12:14:30.155Z,6224.00
2018-11-13T12:15:30.079Z,6492.00
2018-11-13T12:16:30.007Z,6100.00
2018-11-13T12:17:29.932Z,4188.00
2018-11-13T12:18:29.860Z,3480.00
2018-11-13T12:19:29.829Z,3032.00
2018-11-13T12:20:29.712Z,2768.00
2018-11-13T12:21:29.639Z,4184.00
2018-11-13T12:22:29.564Z,2476.00
2018-11-13T12:23:29.490Z,2556.00
2018-11-13T12:24:29.417Z,3852.00
2018-11-13T12:25:29.342Z,5432.00
2018-11-13T12:26:29.267Z,5224.00
2018-11-13T12:27:29.193Z,5548.00
2018-11-13T12:28:29.119Z,4428.00
2018-11-13T12:29:29.093Z,4908.00
2018-11-13T12:30:28.971Z,3716.00
2018-11-13T12:31:28.894Z,3264.00
2018-11-13T12:32:28.819Z,2916.00
2018-11-13T12:33:28.747Z,12052.00
2018-11-13T12:34:28.715Z,6456.00
2018-11-13T12:35:28.597Z,4536.00
2018-11-13T12:36:28.521Z,2504.00
2018-11-13T12:37:28.446Z,2564.00
2018-11-13T12:38:28.374Z,2992.00
2018-11-13T12:39:28.345Z,3000.00
2018-11-13T12:40:28.220Z,2976.00
2018-11-13T12:41:28.144Z,2860.00
2018-11-13T12:42:28.070Z,2880.00